createdAt,value
2022-09-26T00:00:31.623Z,21.52
2022-09-26T00:03:38.042Z,19.75
2022-09-26T00:06:17.610Z,19.10
2022-09-26T00:09:05.020Z,20.13
2022-09-26T00:11:47.065Z,21.52
2022-09-26T00:14:43.050Z,20.38
2022-09-26T00:17:30.061Z,20.00
2022-09-26T00:20:11.153Z,19.00
2022-09-26T00:22:52.054Z,21.40
2022-09-26T00:25:32.118Z,20.17
2022-09-26T00:28:13.065Z,20.23
2022-09-26T00:30:53.223Z,20.50
2022-09-26T00:33:34.047Z,20.77
2022-09-26T00:36:15.049Z,19.83
2022-09-26T00:38:49.137Z,19.33
2022-09-26T00:41:36.044Z,20.00
2022-09-26T00:44:10.120Z,20.60
2022-09-26T00:46:57.046Z,21.00
2022-09-26T00:49:31.307Z,21.23
2022-09-26T00:52:28.055Z,20.15
2022-09-26T00:55:11.050Z,17.25
2022-09-26T00:58:11.038Z,17.80
2022-09-26T01:00:59.139Z,18.30
2022-09-26T01:03:34.145Z,17.83
2022-09-26T01:06:22.049Z,17.42
2022-09-26T01:09:20.091Z,18.35
2022-09-26T01:11:54.033Z,17.73
2022-09-26T01:14:42.069Z,17.38
2022-09-26T01:17:16.578Z,18.45
2022-09-26T01:20:04.051Z,18.65
2022-09-26T01:23:08.080Z,19.17
2022-09-26T01:26:26.072Z,18.92
2022-09-26T01:29:32.074Z,19.55
2022-09-26T01:32:44.056Z,18.45
2022-09-26T01:35:50.079Z,18.27
2022-09-26T01:38:35.200Z,20.20
2022-09-26T01:41:37.073Z,18.05
2022-09-26T01:44:31.068Z,20.58
2022-09-26T01:47:48.035Z,19.75
2022-09-26T01:50:46.080Z,19.33
2022-09-26T01:53:31.055Z,20.92
2022-09-26T01:56:30.048Z,19.10
2022-09-26T01:59:25.072Z,19.52
2022-09-26T02:02:08.140Z,17.98
2022-09-26T02:04:57.167Z,19.50
2022-09-26T02:07:45.149Z,17.80
2022-09-26T02:10:35.067Z,19.42
2022-09-26T02:13:14.121Z,17.63
2022-09-26T02:16:05.138Z,17.27
2022-09-26T02:18:49.057Z,17.23
2022-09-26T02:21:43.076Z,17.73
2022-09-26T02:27:11.139Z,15.50
2022-09-26T02:29:52.086Z,16.27
2022-09-26T02:32:35.394Z,16.30
2022-09-26T02:35:34.085Z,16.35
2022-09-26T02:38:24.054Z,15.90
2022-09-26T02:41:29.126Z,15.80
2022-09-26T02:44:20.093Z,15.57
2022-09-26T02:47:10.074Z,15.75
2022-09-26T02:50:39.071Z,16.67
2022-09-26T02:53:25.063Z,16.63
2022-09-26T02:56:23.068Z,17.25
2022-09-26T02:59:10.091Z,17.08
2022-09-26T03:02:17.100Z,17.27
2022-09-26T03:05:14.143Z,17.50
2022-09-26T03:08:01.086Z,17.15
2022-09-26T03:10:49.087Z,17.92
2022-09-26T03:13:25.226Z,14.70
2022-09-26T03:16:13.119Z,15.60
2022-09-26T03:18:51.344Z,15.48
2022-09-26T03:21:39.115Z,17.30
2022-09-26T03:24:13.159Z,18.17
2022-09-26T03:27:01.085Z,16.88
2022-09-26T03:29:42.078Z,17.63
2022-09-26T03:32:30.078Z,17.92
2022-09-26T03:35:04.183Z,18.10
2022-09-26T03:37:51.081Z,16.70
2022-09-26T03:40:25.501Z,17.80
2022-09-26T03:43:12.093Z,18.42
2022-09-26T03:45:53.137Z,17.27
2022-09-26T03:48:47.108Z,17.40
2022-09-26T03:51:34.068Z,19.88
2022-09-26T03:54:15.093Z,19.35
2022-09-26T03:57:09.095Z,18.52
2022-09-26T04:02:37.213Z,18.25
2022-09-26T04:05:24.120Z,17.63
2022-09-26T04:07:58.176Z,17.77
2022-09-26T04:10:46.113Z,18.17
2022-09-26T04:13:49.463Z,19.20
2022-09-26T04:16:29.136Z,19.55
2022-09-26T04:19:04.190Z,17.83
2022-09-26T04:21:52.086Z,18.40
2022-09-26T04:24:26.153Z,20.50
2022-09-26T04:27:15.101Z,20.35
2022-09-26T04:29:56.114Z,19.52
2022-09-26T04:32:50.109Z,20.98
2022-09-26T04:35:37.091Z,19.85
2022-09-26T04:38:18.105Z,19.70
2022-09-26T04:41:10.150Z,20.73
2022-09-26T04:43:51.097Z,21.25
2022-09-26T04:46:45.101Z,21.42
2022-09-26T04:51:59.109Z,19.90
2022-09-26T04:54:47.098Z,19.60
2022-09-26T04:57:27.122Z,21.38
2022-09-26T05:00:08.187Z,20.83
2022-09-26T05:02:49.108Z,21.55
2022-09-26T05:05:31.321Z,21.27
2022-09-26T05:08:12.100Z,21.75
2022-09-26T05:11:03.293Z,21.58
2022-09-26T05:13:45.162Z,22.80
2022-09-26T05:16:28.153Z,22.17
2022-09-26T05:19:08.113Z,22.33
2022-09-26T05:21:56.121Z,22.80
2022-09-26T05:25:09.100Z,22.40
2022-09-26T05:27:57.116Z,21.92
2022-09-26T05:30:32.280Z,22.58
2022-09-26T05:33:20.145Z,23.42
2022-09-26T05:36:05.155Z,22.08
2022-09-26T05:38:59.101Z,22.48
2022-09-26T05:41:46.132Z,20.45
2022-09-26T05:44:27.124Z,19.50
2022-09-26T05:47:22.094Z,19.98
2022-09-26T05:50:16.233Z,20.60
2022-09-26T05:52:57.109Z,21.80
2022-09-26T05:55:51.130Z,20.13
2022-09-26T05:58:41.108Z,18.20
2022-09-26T06:01:22.640Z,20.23
2022-09-26T06:04:04.139Z,18.98
2022-09-26T06:06:52.113Z,17.95
2022-09-26T06:09:26.177Z,18.48
2022-09-26T06:12:15.126Z,18.55
2022-09-26T06:14:56.135Z,18.25
2022-09-26T06:17:44.131Z,18.63
2022-09-26T06:20:18.079Z,18.85
2022-09-26T06:23:06.139Z,20.25
2022-09-26T06:25:40.063Z,19.75
2022-09-26T06:28:28.124Z,20.15
2022-09-26T06:31:23.220Z,21.00
2022-09-26T06:34:05.445Z,19.27
2022-09-26T06:36:47.164Z,20.00
2022-09-26T06:39:42.118Z,19.38
2022-09-26T06:42:22.156Z,20.55
2022-09-26T06:45:03.203Z,19.70
2022-09-26T06:47:44.110Z,20.02
2022-09-26T06:50:25.203Z,20.25
2022-09-26T06:53:10.152Z,18.85
2022-09-26T06:55:58.148Z,19.65
2022-09-26T06:58:32.252Z,20.58
2022-09-26T07:01:21.260Z,20.10
2022-09-26T07:04:01.117Z,20.73
2022-09-26T07:06:42.191Z,21.33
2022-09-26T07:09:23.184Z,20.13
2022-09-26T07:12:15.079Z,20.98
2022-09-26T07:14:58.167Z,16.90
2022-09-26T07:17:39.247Z,17.73
2022-09-26T07:20:22.127Z,19.73
2022-09-26T07:23:10.188Z,19.77
2022-09-26T07:26:04.102Z,17.83
2022-09-26T07:28:54.776Z,16.58
2022-09-26T07:31:36.159Z,17.25
2022-09-26T07:34:31.138Z,16.58
2022-09-26T07:37:19.137Z,16.65
2022-09-26T07:40:01.860Z,17.45
2022-09-26T07:43:04.251Z,16.10
2022-09-26T07:46:01.820Z,15.77
2022-09-26T07:49:07.135Z,15.82
2022-09-26T07:51:41.511Z,17.35
2022-09-26T07:54:29.140Z,16.23
2022-09-26T07:57:11.131Z,16.70
2022-09-26T08:00:05.156Z,16.25
2022-09-26T08:02:53.217Z,16.92
2022-09-26T08:05:27.216Z,16.63
2022-09-26T08:08:14.147Z,16.83
2022-09-26T08:10:50.217Z,15.35
2022-09-26T08:13:38.151Z,17.23
2022-09-26T08:16:28.235Z,15.65
2022-09-26T08:19:18.155Z,16.55
2022-09-26T08:24:39.136Z,15.93
2022-09-26T08:27:14.219Z,16.30
2022-09-26T08:30:03.158Z,15.43
2022-09-26T08:32:44.828Z,15.93
2022-09-26T08:35:25.167Z,15.82
2022-09-26T08:38:10.239Z,15.00
2022-09-26T08:41:03.265Z,16.40
2022-09-26T08:43:51.131Z,15.93
2022-09-26T08:46:50.594Z,14.65
2022-09-26T08:49:38.123Z,14.50
2022-09-26T08:52:23.540Z,15.65
2022-09-26T08:55:13.170Z,15.32
2022-09-26T08:57:56.168Z,14.43
2022-09-26T09:00:43.224Z,14.18
2022-09-26T09:03:35.145Z,14.60
2022-09-26T09:06:18.227Z,14.95
2022-09-26T09:09:02.156Z,14.68
2022-09-26T09:11:52.249Z,14.82
2022-09-26T09:15:13.831Z,13.63
2022-09-26T09:18:13.642Z,13.57
2022-09-26T09:21:18.173Z,13.75
2022-09-26T09:24:18.199Z,13.55
2022-09-26T09:32:57.264Z,12.90
2022-09-26T09:35:44.237Z,14.30
2022-09-26T09:38:35.181Z,12.98
2022-09-26T09:41:28.179Z,13.07
2022-09-26T09:44:12.246Z,12.98
2022-09-26T09:46:53.275Z,12.55
2022-09-26T09:49:34.150Z,12.60
2022-09-26T09:52:47.171Z,11.90
2022-09-26T09:55:36.156Z,12.50
2022-09-26T09:58:35.229Z,10.30
2022-09-26T10:01:21.145Z,9.00
2022-09-26T10:04:44.165Z,10.48
2022-09-26T10:07:18.177Z,10.05
2022-09-26T10:10:06.168Z,8.80
2022-09-26T10:12:49.155Z,9.43
2022-09-26T10:15:38.192Z,8.18
2022-09-26T10:18:26.002Z,8.30
2022-09-26T10:21:18.222Z,7.28
2022-09-26T10:23:59.160Z,7.57
2022-09-26T10:26:40.303Z,7.15
2022-09-26T10:29:47.175Z,7.25
2022-09-26T10:32:35.161Z,7.28
2022-09-26T10:35:24.027Z,6.45
2022-09-26T10:38:34.170Z,6.47
2022-09-26T10:41:31.180Z,5.22
2022-09-26T10:44:07.919Z,5.78
2022-09-26T10:46:56.265Z,5.03
2022-09-26T10:49:36.314Z,5.23
2022-09-26T10:52:30.178Z,5.50
2022-09-26T10:55:11.191Z,5.00
2022-09-26T10:58:00.188Z,4.10
2022-09-26T11:00:52.965Z,4.93
2022-09-26T11:03:57.255Z,5.05
2022-09-26T11:06:56.158Z,5.03
2022-09-26T11:09:52.187Z,5.20
2022-09-26T11:12:46.171Z,3.92
2022-09-26T11:15:22.412Z,4.82
2022-09-26T11:18:12.199Z,3.40
2022-09-26T11:20:58.271Z,4.47
2022-09-26T11:23:51.186Z,3.38
2022-09-26T11:26:54.233Z,2.92
2022-09-26T11:29:53.196Z,3.40
2022-09-26T11:32:45.243Z,3.47
2022-09-26T11:35:36.220Z,3.53
2022-09-26T11:38:29.241Z,4.45
2022-09-26T11:41:21.201Z,3.90
2022-09-26T11:44:15.278Z,4.15
2022-09-26T11:47:06.052Z,4.13
2022-09-26T11:49:57.188Z,3.85
2022-09-26T11:52:49.810Z,4.43
2022-09-26T11:55:39.212Z,4.07
2022-09-26T12:01:10.208Z,3.83
2022-09-26T12:04:12.208Z,3.20
2022-09-26T12:07:09.222Z,4.57
2022-09-26T12:09:49.303Z,4.60
2022-09-26T12:12:49.168Z,4.05
2022-09-26T12:18:14.205Z,4.25
2022-09-26T12:21:01.284Z,4.72
2022-09-26T12:23:45.193Z,4.25
2022-09-26T12:26:41.205Z,4.53
2022-09-26T12:29:21.059Z,4.10
2022-09-26T12:32:27.194Z,4.75
2022-09-26T12:35:01.161Z,4.65
2022-09-26T12:38:08.190Z,4.50
2022-09-26T12:40:48.624Z,4.65
2022-09-26T12:43:48.188Z,4.47
2022-09-26T12:46:31.569Z,3.92
2022-09-26T12:49:38.204Z,4.88
2022-09-26T12:52:12.108Z,5.20
2022-09-26T12:55:03.218Z,4.35
2022-09-26T12:57:44.757Z,4.85
2022-09-26T13:00:35.215Z,4.07
2022-09-26T13:03:15.439Z,4.13
2022-09-26T13:06:08.739Z,3.45
2022-09-26T13:08:58.488Z,4.03
2022-09-26T13:11:54.216Z,3.65
2022-09-26T13:14:38.521Z,4.13
2022-09-26T13:17:49.214Z,3.92
2022-09-26T13:20:33.812Z,3.83
2022-09-26T13:23:34.218Z,5.18
2022-09-26T13:26:19.694Z,5.45
2022-09-26T13:29:18.265Z,4.03
2022-09-26T13:32:14.214Z,4.15
2022-09-26T13:34:59.558Z,3.65
2022-09-26T13:37:45.223Z,4.00
2022-09-26T13:40:36.374Z,4.00
2022-09-26T13:43:37.197Z,3.75
2022-09-26T13:46:59.539Z,4.10
2022-09-26T13:49:46.219Z,3.75
2022-09-26T13:52:34.160Z,4.05
2022-09-26T13:55:22.206Z,3.95
2022-09-26T13:58:03.973Z,3.53
2022-09-26T14:00:47.241Z,3.90
2022-09-26T14:03:29.614Z,3.83
2022-09-26T14:06:24.234Z,4.18
2022-09-26T14:09:31.215Z,4.35
2022-09-26T14:12:20.076Z,4.65
2022-09-26T14:15:22.223Z,4.70
2022-09-26T14:18:02.745Z,4.63
2022-09-26T14:21:00.230Z,4.85
2022-09-26T14:23:35.857Z,4.55
2022-09-26T14:26:34.228Z,4.80
2022-09-26T14:29:44.219Z,4.50
2022-09-26T14:32:37.239Z,4.60
2022-09-26T14:35:31.593Z,4.28
2022-09-26T14:38:25.268Z,4.60
2022-09-26T14:41:02.431Z,4.70
2022-09-26T14:43:50.250Z,5.05
2022-09-26T14:46:25.369Z,4.70
2022-09-26T14:49:14.248Z,4.63
2022-09-26T14:51:49.347Z,4.43
2022-09-26T14:54:44.236Z,5.72
2022-09-26T14:57:39.268Z,4.60
2022-09-26T15:00:57.254Z,5.32
2022-09-26T15:03:45.259Z,5.07
2022-09-26T15:06:19.340Z,7.07
2022-09-26T15:09:15.271Z,9.00
2022-09-26T15:11:51.370Z,6.43
2022-09-26T15:14:43.219Z,5.70
2022-09-26T15:17:46.272Z,6.13
2022-09-26T15:20:43.232Z,6.22
2022-09-26T15:23:35.252Z,6.85
2022-09-26T15:26:09.332Z,6.72
2022-09-26T15:28:58.293Z,8.45
2022-09-26T15:31:49.340Z,8.88
2022-09-26T15:34:41.301Z,7.63
2022-09-26T15:37:24.520Z,7.65
2022-09-26T15:40:17.318Z,7.90
2022-09-26T15:43:09.532Z,8.18
2022-09-26T15:45:52.299Z,9.30
2022-09-26T15:48:41.318Z,9.50
2022-09-26T15:51:25.247Z,10.02
2022-09-26T15:54:22.576Z,13.32
2022-09-26T15:57:01.788Z,8.90
2022-09-26T15:59:54.274Z,9.07
2022-09-26T16:02:32.775Z,12.07
2022-09-26T16:05:22.258Z,12.77
2022-09-26T16:10:40.262Z,17.55
2022-09-26T16:13:25.465Z,13.40
2022-09-26T16:16:19.351Z,12.80
2022-09-26T16:19:05.514Z,65.88
2022-09-26T16:21:53.280Z,32.25
2022-09-26T16:24:40.347Z,40.05
2022-09-26T16:27:32.465Z,31.33
2022-09-26T16:30:13.270Z,17.77
2022-09-26T16:33:20.274Z,11.70
2022-09-26T16:36:27.277Z,10.23
2022-09-26T16:39:11.451Z,7.13
2022-09-26T16:42:03.769Z,7.95
2022-09-26T16:44:49.379Z,6.55
2022-09-26T16:47:36.314Z,4.55
2022-09-26T16:50:37.161Z,4.18
2022-09-26T16:53:19.281Z,4.10
2022-09-26T16:56:00.319Z,4.03
2022-09-26T16:58:41.352Z,3.90
2022-09-26T17:01:40.339Z,4.70
2022-09-26T17:04:30.268Z,5.03
2022-09-26T17:07:09.547Z,8.57
2022-09-26T17:09:57.362Z,8.77
2022-09-26T17:12:31.357Z,8.85
2022-09-26T17:15:20.275Z,10.32
2022-09-26T17:17:54.879Z,11.30
2022-09-26T17:20:42.307Z,11.48
2022-09-26T17:23:38.570Z,13.05
2022-09-26T17:26:30.321Z,13.83
2022-09-26T17:29:04.518Z,12.68
2022-09-26T17:31:52.273Z,11.95
2022-09-26T17:34:35.293Z,15.35
2022-09-26T17:37:16.553Z,24.45
2022-09-26T17:39:57.302Z,21.73
2022-09-26T17:42:45.367Z,24.92
2022-09-26T17:45:20.246Z,17.20
2022-09-26T17:48:11.292Z,19.98
2022-09-26T17:50:46.857Z,41.42
2022-09-26T17:53:36.622Z,22.13
2022-09-26T17:56:10.768Z,26.35
2022-09-26T17:58:58.356Z,26.63
2022-09-26T18:01:40.380Z,17.55
2022-09-26T18:04:21.383Z,13.57
2022-09-26T18:07:08.429Z,13.40
2022-09-26T18:09:56.312Z,12.73
2022-09-26T18:12:37.319Z,29.13
2022-09-26T18:15:21.586Z,23.23
2022-09-26T18:18:02.341Z,20.02
2022-09-26T18:20:45.715Z,21.45
2022-09-26T18:23:30.311Z,23.70
2022-09-26T18:26:11.490Z,40.10
2022-09-26T18:28:52.308Z,48.35
2022-09-26T18:31:35.457Z,117.35
2022-09-26T18:34:27.297Z,33.65
2022-09-26T18:37:08.405Z,17.80
2022-09-26T18:39:54.372Z,11.98
2022-09-26T18:45:19.354Z,8.20
2022-09-26T18:48:02.227Z,8.50
2022-09-26T18:50:44.330Z,8.57
2022-09-26T18:53:29.437Z,8.20
2022-09-26T18:56:28.347Z,11.13
2022-09-26T18:59:10.340Z,10.65
2022-09-26T19:01:51.467Z,9.93
2022-09-26T19:04:33.209Z,9.73
2022-09-26T19:07:18.677Z,11.35
2022-09-26T19:10:01.435Z,11.35
2022-09-26T19:12:45.316Z,11.98
2022-09-26T19:15:27.826Z,16.98
2022-09-26T19:18:09.330Z,13.05
2022-09-26T19:20:50.399Z,10.95
2022-09-26T19:23:41.362Z,10.25
2022-09-26T19:26:19.412Z,9.40
2022-09-26T19:29:11.310Z,11.80
2022-09-26T19:31:47.701Z,9.50
2022-09-26T19:34:35.359Z,10.70
2022-09-26T19:37:17.483Z,10.18
2022-09-26T19:39:57.325Z,13.05
2022-09-26T19:42:38.531Z,11.25
2022-09-26T19:45:19.369Z,9.13
2022-09-26T19:48:01.423Z,9.18
2022-09-26T19:50:44.384Z,11.23
2022-09-26T19:53:31.987Z,13.45
2022-09-26T19:56:13.367Z,13.73
2022-09-26T19:58:54.490Z,12.10
2022-09-26T20:01:41.365Z,10.45
2022-09-26T20:04:36.339Z,10.38
2022-09-26T20:07:25.357Z,9.65
2022-09-26T20:09:59.417Z,11.18
2022-09-26T20:12:46.336Z,16.45
2022-09-26T20:15:21.457Z,13.23
2022-09-26T20:18:09.338Z,17.45
2022-09-26T20:20:43.408Z,16.38
2022-09-26T20:23:32.345Z,14.43
2022-09-26T20:26:06.526Z,21.48
2022-09-26T20:28:53.337Z,16.48
2022-09-26T20:31:28.487Z,16.30
2022-09-26T20:34:17.329Z,17.05
2022-09-26T20:37:06.349Z,15.93
2022-09-26T20:40:01.308Z,16.63
2022-09-26T20:42:51.345Z,15.18
2022-09-26T20:45:26.432Z,14.77
2022-09-26T20:48:25.370Z,13.48
2022-09-26T20:50:59.423Z,15.07
2022-09-26T20:53:47.327Z,17.63
2022-09-26T20:56:21.549Z,16.00
2022-09-26T20:59:08.339Z,15.32
2022-09-26T21:01:42.516Z,16.38
2022-09-26T21:04:37.353Z,15.75
2022-09-26T21:07:11.502Z,13.23
2022-09-26T21:09:59.363Z,22.08
2022-09-26T21:12:33.408Z,16.30
2022-09-26T21:15:21.345Z,10.23
2022-09-26T21:17:56.478Z,40.55
2022-09-26T21:20:44.356Z,12.55
2022-09-26T21:23:26.422Z,9.82
2022-09-26T21:26:06.331Z,16.95
2022-09-26T21:28:47.420Z,30.88
2022-09-26T21:31:37.319Z,15.80
2022-09-26T21:34:23.368Z,26.88
2022-09-26T21:37:17.329Z,17.95
2022-09-26T21:42:38.507Z,14.43
2022-09-26T21:45:27.532Z,14.07
2022-09-26T21:48:03.464Z,11.25
2022-09-26T21:50:57.846Z,6.78
2022-09-26T21:53:40.496Z,6.80
2022-09-26T21:56:31.371Z,8.57
2022-09-26T21:59:12.410Z,8.02
2022-09-26T22:02:06.402Z,7.82
2022-09-26T22:04:54.343Z,8.80
2022-09-26T22:07:28.464Z,10.95
2022-09-26T22:10:16.352Z,12.18
2022-09-26T22:12:50.452Z,13.57
2022-09-26T22:15:37.362Z,11.98
2022-09-26T22:18:11.425Z,12.40
2022-09-26T22:21:02.380Z,12.68
2022-09-26T22:23:43.362Z,12.57
2022-09-26T22:26:37.343Z,10.68
2022-09-26T22:32:06.229Z,9.82
2022-09-26T22:34:46.365Z,10.85
2022-09-26T22:37:27.451Z,11.00
2022-09-26T22:40:08.370Z,11.52
2022-09-26T22:42:49.544Z,14.63
2022-09-26T22:45:30.359Z,15.18
2022-09-26T22:48:18.356Z,20.13
2022-09-26T22:50:53.100Z,10.57
2022-09-26T22:53:40.356Z,8.38
2022-09-26T22:56:15.231Z,9.95
2022-09-26T22:59:05.374Z,10.10
2022-09-26T23:01:45.429Z,22.25
2022-09-26T23:04:53.425Z,24.42
2022-09-26T23:07:27.367Z,13.68
2022-09-26T23:10:15.366Z,12.63
2022-09-26T23:12:50.662Z,11.80
2022-09-26T23:15:38.374Z,45.85
2022-09-26T23:18:14.124Z,24.27
2022-09-26T23:21:01.361Z,16.05
2022-09-26T23:23:35.387Z,21.88
2022-09-26T23:26:28.371Z,25.70
2022-09-26T23:29:02.341Z,22.40
2022-09-26T23:31:50.372Z,11.93
2022-09-26T23:34:31.370Z,9.85
2022-09-26T23:37:12.471Z,8.50
2022-09-26T23:39:53.387Z,8.52
2022-09-26T23:42:34.455Z,8.57
2022-09-26T23:45:15.400Z,7.65
2022-09-26T23:48:03.379Z,7.95
2022-09-26T23:50:37.547Z,9.02
2022-09-26T23:53:25.391Z,8.95
2022-09-26T23:56:03.926Z,9.15
2022-09-26T23:58:51.396Z,10.88
